This is the latest recevied weather packets stored in our database for station/object DB7GV-8. If no packets are shown the sender has not sent any weather packets the latest 10 day(s).
| Time | Temp. | Humidity | Pressure | Rain* | Wind** | Luminosity | Snow |
|---|---|---|---|---|---|---|---|
| 1778088865 | 11.67° C | 78% | 1010.8 hPa | - | - | - | - |
| 1778087054 | 11.67° C | 74% | 1010.5 hPa | - | - | - | - |
| 1778085243 | 11.67° C | 72% | 1010.1 hPa | - | - | - | - |
| 1778078000 | 12.78° C | 74% | 1010 hPa | - | - | - | - |
| 1778077095 | 12.78° C | 74% | 1009.9 hPa | - | - | - | - |
| 1778074378 | 13.89° C | 72% | 1009.4 hPa | - | - | - | - |
| 1778073473 | 14.44° C | 70% | 1009.2 hPa | - | - | - | - |
| 1778072568 | 15.56° C | 65% | 1008.9 hPa | - | - | - | - |
| 1778071662 | 16.11° C | 63% | 1008.5 hPa | - | - | - | - |
| 1778069851 | 17.22° C | 60% | 1008.1 hPa | - | - | - | - |
| 1778060797 | 15° C | 69% | 1008.4 hPa | - | - | - | - |
| 1778056270 | 16.11° C | 61% | 1008.2 hPa | - | - | - | - |
| 1778055365 | 17.78° C | 56% | 1008.1 hPa | - | - | - | - |
| 1778054459 | 23.33° C | 47% | 1008.3 hPa | - | - | - | - |
| 1778052649 | 22.78° C | 48% | 1008.4 hPa | - | - | - | - |
| 1778050837 | 21.67° C | 64% | 1008.6 hPa | - | - | - | - |
| 1778049027 | 10.56° C | 89% | 1008.5 hPa | - | - | - | - |
| 1778048121 | 10.56° C | 89% | 1008.5 hPa | - | - | - | - |
| 1778047216 | 10° C | 89% | 1008.5 hPa | - | - | - | - |
| 1778046311 | 9.44° C | 90% | 1008.7 hPa | - | - | - | - |
| 1778044500 | 8.89° C | 90% | 1008.8 hPa | - | - | - | - |
| 1778043595 | 8.33° C | 91% | 1008.9 hPa | - | - | - | - |
| 1778042688 | 8.33° C | 91% | 1008.8 hPa | - | - | - | - |
| 1778041783 | 8.33° C | 91% | 1008.9 hPa | - | - | - | - |
| 1778040878 | 8.33° C | 91% | 1009 hPa | - | - | - | - |
* Rain since midnight (hover to see other rain measurements)
** Current wind speed in m/s (hover to see current wind gust speed)